createdAt,value
2022-10-13T00:01:12.065Z,12.38
2022-10-13T00:03:40.473Z,13.23
2022-10-13T00:06:09.829Z,15.38
2022-10-13T00:08:37.349Z,10.50
2022-10-13T00:11:15.274Z,9.77
2022-10-13T00:13:42.912Z,10.00
2022-10-13T00:16:11.520Z,14.07
2022-10-13T00:18:38.592Z,7.75
2022-10-13T00:21:10.305Z,12.77
2022-10-13T00:23:38.214Z,13.20
2022-10-13T00:26:07.103Z,12.00
2022-10-13T00:28:33.867Z,7.72
2022-10-13T00:31:00.771Z,12.10
2022-10-13T00:33:27.774Z,12.85
2022-10-13T00:35:54.497Z,11.55
2022-10-13T00:38:22.332Z,10.43
2022-10-13T00:40:50.750Z,12.25
2022-10-13T00:43:20.390Z,11.25
2022-10-13T00:45:50.627Z,11.50
2022-10-13T00:48:25.227Z,10.18
2022-10-13T00:50:52.830Z,9.43
2022-10-13T00:53:23.391Z,7.60
2022-10-13T00:55:52.402Z,14.02
2022-10-13T00:58:23.123Z,11.60
2022-10-13T01:00:52.222Z,9.63
2022-10-13T01:03:20.498Z,9.70
2022-10-13T01:05:48.432Z,9.18
2022-10-13T01:08:16.229Z,11.25
2022-10-13T01:11:01.675Z,8.13
2022-10-13T01:13:44.809Z,10.05
2022-10-13T01:16:29.820Z,13.10
2022-10-13T01:19:16.008Z,12.48
2022-10-13T01:22:13.528Z,8.40
2022-10-13T01:25:09.316Z,11.65
2022-10-13T01:27:47.963Z,16.45
2022-10-13T01:30:15.899Z,11.23
2022-10-13T01:32:48.321Z,17.00
2022-10-13T01:35:39.674Z,8.48
2022-10-13T01:38:35.708Z,11.50
2022-10-13T01:41:23.941Z,7.80
2022-10-13T01:44:02.866Z,13.82
2022-10-13T01:46:36.747Z,10.35
2022-10-13T01:49:09.901Z,15.77
2022-10-13T01:51:37.154Z,9.02
2022-10-13T01:54:03.980Z,9.63
2022-10-13T01:56:30.792Z,10.25
2022-10-13T01:58:59.972Z,11.18
2022-10-13T02:01:51.363Z,9.07
2022-10-13T02:04:37.871Z,10.30
2022-10-13T02:07:34.541Z,9.35
2022-10-13T02:10:22.828Z,10.18
2022-10-13T02:12:59.501Z,10.07
2022-10-13T02:15:45.106Z,10.38
2022-10-13T02:18:18.476Z,13.30
2022-10-13T02:20:46.396Z,8.75
2022-10-13T02:23:16.350Z,11.50
2022-10-13T02:25:44.369Z,12.68
2022-10-13T02:28:14.262Z,12.32
2022-10-13T02:30:45.565Z,8.15
2022-10-13T02:33:13.683Z,11.35
2022-10-13T02:35:41.624Z,9.55
2022-10-13T02:38:08.818Z,10.07
2022-10-13T02:40:35.572Z,11.90
2022-10-13T02:43:39.846Z,9.98
2022-10-13T02:46:06.556Z,11.00
2022-10-13T02:48:33.336Z,13.93
2022-10-13T02:51:00.053Z,9.25
2022-10-13T02:53:26.841Z,9.68
2022-10-13T02:55:55.495Z,10.90
2022-10-13T02:58:25.282Z,9.80
2022-10-13T03:00:52.116Z,13.32
2022-10-13T03:03:19.072Z,7.30
2022-10-13T03:05:47.816Z,10.10
2022-10-13T03:08:16.319Z,7.82
2022-10-13T03:10:43.263Z,10.80
2022-10-13T03:13:10.051Z,9.20
2022-10-13T03:15:36.791Z,13.05
2022-10-13T03:18:06.385Z,14.43
2022-10-13T03:20:33.093Z,9.73
2022-10-13T03:22:59.841Z,10.75
2022-10-13T03:25:26.586Z,10.50
2022-10-13T03:27:55.711Z,11.13
2022-10-13T03:30:22.458Z,9.35
2022-10-13T03:32:49.309Z,9.13
2022-10-13T03:35:16.247Z,11.90
2022-10-13T03:37:43.039Z,7.40
2022-10-13T03:40:10.683Z,10.45
2022-10-13T03:42:39.503Z,11.88
2022-10-13T03:45:07.162Z,13.35
2022-10-13T03:47:36.819Z,9.75
2022-10-13T03:50:05.537Z,8.98
2022-10-13T03:52:32.591Z,9.73
2022-10-13T03:54:59.424Z,11.13
2022-10-13T03:57:26.221Z,14.48
2022-10-13T03:59:52.962Z,15.80
2022-10-13T04:02:19.989Z,9.82
2022-10-13T04:04:48.857Z,9.13
2022-10-13T04:07:15.721Z,11.88
2022-10-13T04:09:42.513Z,10.32
2022-10-13T04:12:09.248Z,16.00
2022-10-13T04:14:36.030Z,11.50
2022-10-13T04:17:08.023Z,19.58
2022-10-13T04:19:34.815Z,13.48
2022-10-13T04:22:05.358Z,17.05
2022-10-13T04:24:32.171Z,10.52
2022-10-13T04:26:58.921Z,18.17
2022-10-13T04:29:25.689Z,15.32
2022-10-13T04:31:53.600Z,15.13
2022-10-13T04:34:20.764Z,13.45
2022-10-13T04:36:50.517Z,9.27
2022-10-13T04:39:18.315Z,13.77
2022-10-13T04:41:45.714Z,16.30
2022-10-13T04:44:12.492Z,13.30
2022-10-13T04:46:39.328Z,14.30
2022-10-13T04:49:06.090Z,10.68
2022-10-13T04:51:34.485Z,11.73
2022-10-13T04:54:05.546Z,13.35
2022-10-13T04:56:32.418Z,14.23
2022-10-13T04:59:05.229Z,13.18
2022-10-13T05:01:33.135Z,10.60
2022-10-13T05:04:02.552Z,12.88
2022-10-13T05:06:53.252Z,15.45
2022-10-13T05:09:24.846Z,11.25
2022-10-13T05:11:51.875Z,15.52
2022-10-13T05:14:18.742Z,16.33
2022-10-13T05:16:45.510Z,14.82
2022-10-13T05:19:13.593Z,14.60
2022-10-13T05:21:40.559Z,14.68
2022-10-13T05:24:13.104Z,15.23
2022-10-13T05:26:40.958Z,15.48
2022-10-13T05:29:08.063Z,16.40
2022-10-13T05:31:36.112Z,16.45
2022-10-13T05:34:03.290Z,16.27
2022-10-13T05:36:32.747Z,14.52
2022-10-13T05:39:02.494Z,14.85
2022-10-13T05:41:30.420Z,16.80
2022-10-13T05:44:00.449Z,16.27
2022-10-13T05:46:27.695Z,15.05
2022-10-13T05:48:54.613Z,17.17
2022-10-13T05:51:26.585Z,15.23
2022-10-13T05:53:59.601Z,15.82
2022-10-13T05:56:32.050Z,20.65
2022-10-13T05:59:02.966Z,17.98
2022-10-13T06:01:32.659Z,21.42
2022-10-13T06:04:04.314Z,18.33
2022-10-13T06:06:31.791Z,13.35
2022-10-13T06:09:00.006Z,18.25
2022-10-13T06:11:26.978Z,17.63
2022-10-13T06:13:53.751Z,20.27
2022-10-13T06:16:20.502Z,20.17
2022-10-13T06:18:47.849Z,17.25
2022-10-13T06:21:14.586Z,16.15
2022-10-13T06:23:41.337Z,19.42
2022-10-13T06:26:09.062Z,19.45
2022-10-13T06:28:37.364Z,18.65
2022-10-13T06:31:06.563Z,18.55
2022-10-13T06:33:33.995Z,17.40
2022-10-13T06:36:05.516Z,28.20
2022-10-13T06:38:33.315Z,15.80
2022-10-13T06:41:01.868Z,20.13
2022-10-13T06:43:39.659Z,16.88
2022-10-13T06:46:10.977Z,18.95
2022-10-13T06:48:38.088Z,14.60
2022-10-13T06:51:08.285Z,17.40
2022-10-13T06:53:35.295Z,16.27
2022-10-13T06:56:05.177Z,19.23
2022-10-13T06:58:32.020Z,13.73
2022-10-13T07:00:58.840Z,17.42
2022-10-13T07:03:26.074Z,19.92
2022-10-13T07:05:53.300Z,19.73
2022-10-13T07:08:20.897Z,17.48
2022-10-13T07:10:47.929Z,17.60
2022-10-13T07:13:14.702Z,16.50
2022-10-13T07:15:41.734Z,21.77
2022-10-13T07:18:08.646Z,16.83
2022-10-13T07:20:35.823Z,16.45
2022-10-13T07:23:02.753Z,18.63
2022-10-13T07:25:29.616Z,20.45
2022-10-13T07:27:58.203Z,13.73
2022-10-13T07:30:25.434Z,15.55
2022-10-13T07:32:52.333Z,14.90
2022-10-13T07:35:19.891Z,22.58
2022-10-13T07:37:47.134Z,19.83
2022-10-13T07:40:13.964Z,16.40
2022-10-13T07:42:40.804Z,17.52
2022-10-13T07:45:08.252Z,17.77
2022-10-13T07:47:35.093Z,19.88
2022-10-13T07:50:02.035Z,20.42
2022-10-13T07:52:28.805Z,18.88
2022-10-13T07:54:56.007Z,19.38
2022-10-13T07:57:26.449Z,18.15
2022-10-13T07:59:53.632Z,35.95
2022-10-13T08:02:20.818Z,18.42
2022-10-13T08:04:48.736Z,17.77
2022-10-13T08:07:16.889Z,19.00
2022-10-13T08:09:44.608Z,17.30
2022-10-13T08:12:11.963Z,22.23
2022-10-13T08:14:38.828Z,19.77
2022-10-13T08:17:05.783Z,18.30
2022-10-13T08:19:32.667Z,20.23
2022-10-13T08:22:00.314Z,21.42
2022-10-13T08:24:28.115Z,16.83
2022-10-13T08:26:55.057Z,20.65
2022-10-13T08:29:23.368Z,19.23
2022-10-13T08:31:52.583Z,18.77
2022-10-13T08:34:19.956Z,23.67
2022-10-13T08:36:47.341Z,18.58
2022-10-13T08:39:14.449Z,23.25
2022-10-13T08:41:46.670Z,17.65
2022-10-13T08:47:39.852Z,22.60
2022-10-13T08:50:29.875Z,20.60
2022-10-13T08:53:01.570Z,20.45
2022-10-13T08:55:34.736Z,16.48
2022-10-13T08:58:06.075Z,17.73
2022-10-13T09:00:32.931Z,22.58
2022-10-13T09:03:19.166Z,20.13
2022-10-13T09:06:02.426Z,21.38
2022-10-13T09:08:34.436Z,20.10
2022-10-13T09:11:02.878Z,23.30
2022-10-13T09:13:29.689Z,19.02
2022-10-13T09:15:58.373Z,20.98
2022-10-13T09:18:31.714Z,21.00
2022-10-13T09:21:21.882Z,24.75
2022-10-13T09:23:54.331Z,21.60
2022-10-13T09:26:25.133Z,21.25
2022-10-13T09:28:52.948Z,18.02
2022-10-13T09:31:28.825Z,22.38
2022-10-13T09:34:18.838Z,18.17
2022-10-13T09:37:03.490Z,20.17
2022-10-13T09:39:31.550Z,18.35
2022-10-13T09:42:19.842Z,17.23
2022-10-13T09:44:48.499Z,19.77
2022-10-13T09:47:21.607Z,16.48
2022-10-13T09:50:06.403Z,17.17
2022-10-13T09:52:34.918Z,16.33
2022-10-13T09:55:01.971Z,19.40
2022-10-13T09:57:45.843Z,16.98
2022-10-13T10:00:27.589Z,17.45
2022-10-13T10:03:12.088Z,18.20
2022-10-13T10:05:44.655Z,15.05
2022-10-13T10:08:28.895Z,20.50
2022-10-13T10:11:12.610Z,15.50
2022-10-13T10:13:39.535Z,20.83
2022-10-13T10:16:13.560Z,15.38
2022-10-13T10:19:03.618Z,17.85
2022-10-13T10:21:41.804Z,16.80
2022-10-13T10:24:15.604Z,18.77
2022-10-13T10:26:56.033Z,15.52
2022-10-13T10:29:29.354Z,21.92
2022-10-13T10:32:18.301Z,16.38
2022-10-13T10:35:12.560Z,17.25
2022-10-13T10:38:10.093Z,16.30
2022-10-13T10:40:55.882Z,18.70
2022-10-13T10:43:32.561Z,17.40
2022-10-13T10:46:00.365Z,20.23
2022-10-13T10:48:38.349Z,19.38
2022-10-13T10:51:09.823Z,17.67
2022-10-13T10:53:58.153Z,28.55
2022-10-13T10:56:37.359Z,33.50
2022-10-13T10:59:40.146Z,26.65
2022-10-13T11:02:06.886Z,23.48
2022-10-13T11:04:48.605Z,18.25
2022-10-13T11:07:38.222Z,27.83
2022-10-13T11:10:14.086Z,90.82
2022-10-13T11:12:52.804Z,17.83
2022-10-13T11:15:25.224Z,44.47
2022-10-13T11:17:52.486Z,20.33
2022-10-13T11:20:22.188Z,21.23
2022-10-13T11:22:57.994Z,17.80
2022-10-13T11:25:44.735Z,18.95
2022-10-13T11:28:20.939Z,17.38
2022-10-13T11:30:57.376Z,17.30
2022-10-13T11:33:39.275Z,20.63
2022-10-13T11:36:29.238Z,18.85
2022-10-13T11:39:25.626Z,15.90
2022-10-13T11:42:23.080Z,30.52
2022-10-13T11:44:59.840Z,27.45
2022-10-13T11:48:01.410Z,14.77
2022-10-13T11:50:34.217Z,22.98
2022-10-13T11:53:28.058Z,14.25
2022-10-13T11:56:01.513Z,18.92
2022-10-13T11:58:33.200Z,24.35
2022-10-13T12:01:03.175Z,16.85
2022-10-13T12:03:36.833Z,16.92
2022-10-13T12:06:26.744Z,20.00
2022-10-13T12:08:53.596Z,18.50
2022-10-13T12:11:33.061Z,24.30
2022-10-13T12:14:01.296Z,18.40
2022-10-13T12:16:29.646Z,14.93
2022-10-13T12:19:19.894Z,13.55
2022-10-13T12:21:55.678Z,12.43
2022-10-13T12:24:28.147Z,17.02
2022-10-13T12:26:56.096Z,14.50
2022-10-13T12:29:26.800Z,16.00
2022-10-13T12:31:54.461Z,19.83
2022-10-13T12:34:29.034Z,14.13
2022-10-13T12:37:05.549Z,15.27
2022-10-13T12:39:35.087Z,18.48
2022-10-13T12:42:03.969Z,19.65
2022-10-13T12:44:32.303Z,16.38
2022-10-13T12:47:03.893Z,12.63
2022-10-13T12:49:35.610Z,19.00
2022-10-13T12:52:19.684Z,11.95
2022-10-13T12:54:51.170Z,14.48
2022-10-13T12:57:26.020Z,11.80
2022-10-13T12:59:53.132Z,14.95
2022-10-13T13:02:32.514Z,13.77
2022-10-13T13:04:59.628Z,11.70
2022-10-13T13:07:37.434Z,13.27
2022-10-13T13:10:14.978Z,12.50
2022-10-13T13:12:42.483Z,15.18
2022-10-13T13:15:25.681Z,14.18
2022-10-13T13:17:58.183Z,12.13
2022-10-13T13:20:31.767Z,11.98
2022-10-13T13:22:59.480Z,10.75
2022-10-13T13:25:26.783Z,11.52
2022-10-13T13:27:53.698Z,12.38
2022-10-13T13:30:22.655Z,9.82
2022-10-13T13:32:50.466Z,12.57
2022-10-13T13:35:17.849Z,9.25
2022-10-13T13:37:50.971Z,10.55
2022-10-13T13:40:21.047Z,10.35
2022-10-13T13:42:47.920Z,9.93
2022-10-13T13:45:16.072Z,12.80
2022-10-13T13:47:43.119Z,10.00
2022-10-13T13:50:20.809Z,8.52
2022-10-13T13:52:56.566Z,8.98
2022-10-13T13:55:23.781Z,11.98
2022-10-13T13:57:50.567Z,13.20
2022-10-13T14:00:18.055Z,10.07
2022-10-13T14:02:49.774Z,11.13
2022-10-13T14:05:17.665Z,11.20
2022-10-13T14:07:44.397Z,11.25
2022-10-13T14:10:11.507Z,12.63
2022-10-13T14:12:38.534Z,7.95
2022-10-13T14:15:05.762Z,9.55
2022-10-13T14:17:32.538Z,12.02
2022-10-13T14:20:00.535Z,10.57
2022-10-13T14:22:27.629Z,9.27
2022-10-13T14:24:54.467Z,9.98
2022-10-13T14:27:21.338Z,10.65
2022-10-13T14:29:48.106Z,11.93
2022-10-13T14:32:15.796Z,11.55
2022-10-13T14:34:42.575Z,11.73
2022-10-13T14:37:09.400Z,13.50
2022-10-13T14:39:36.204Z,13.40
2022-10-13T14:42:02.983Z,12.65
2022-10-13T14:44:29.757Z,14.93
2022-10-13T14:46:56.559Z,12.82
2022-10-13T14:49:24.185Z,9.48
2022-10-13T14:51:50.917Z,11.82
2022-10-13T14:54:18.062Z,15.00
2022-10-13T14:56:44.935Z,14.52
2022-10-13T14:59:12.400Z,11.02
2022-10-13T15:01:41.657Z,10.50
2022-10-13T15:04:08.834Z,12.40
2022-10-13T15:06:39.269Z,11.00
2022-10-13T15:11:39.062Z,8.38
2022-10-13T15:14:06.068Z,5.78
2022-10-13T15:16:33.665Z,11.55
2022-10-13T15:19:00.475Z,9.98
2022-10-13T15:21:27.324Z,10.10
2022-10-13T15:23:54.099Z,14.07
2022-10-13T15:26:21.365Z,9.35
2022-10-13T15:28:50.795Z,14.13
2022-10-13T15:31:19.613Z,12.63
2022-10-13T15:33:48.151Z,11.55
2022-10-13T15:36:15.145Z,8.52
2022-10-13T15:38:41.968Z,10.10
2022-10-13T15:41:10.762Z,8.65
2022-10-13T15:43:38.475Z,8.18
2022-10-13T15:46:08.224Z,10.68
2022-10-13T15:48:35.739Z,11.85
2022-10-13T15:51:08.529Z,11.77
2022-10-13T15:53:35.383Z,9.05
2022-10-13T15:56:02.889Z,11.45
2022-10-13T15:58:29.670Z,8.57
2022-10-13T16:00:56.549Z,10.10
2022-10-13T16:03:24.458Z,10.65
2022-10-13T16:05:51.275Z,10.10
2022-10-13T16:08:18.006Z,11.55
2022-10-13T16:10:44.820Z,11.23
2022-10-13T16:13:15.173Z,10.10
2022-10-13T16:15:43.011Z,10.13
2022-10-13T16:18:09.757Z,14.75
2022-10-13T16:20:38.753Z,9.27
2022-10-13T16:23:05.772Z,8.43
2022-10-13T16:25:32.589Z,9.38
2022-10-13T16:28:00.733Z,10.82
2022-10-13T16:30:30.389Z,12.23
2022-10-13T16:32:57.816Z,9.43
2022-10-13T16:35:24.621Z,11.90
2022-10-13T16:37:51.353Z,10.43
2022-10-13T16:40:18.103Z,15.80
2022-10-13T16:42:45.420Z,9.40
2022-10-13T16:45:13.190Z,11.50
2022-10-13T16:47:39.973Z,10.35
2022-10-13T16:50:09.690Z,12.05
2022-10-13T16:52:37.772Z,14.70
2022-10-13T16:55:06.061Z,11.68
2022-10-13T16:57:33.068Z,10.27
2022-10-13T17:00:00.209Z,12.02
2022-10-13T17:02:28.714Z,10.52
2022-10-13T17:04:55.538Z,9.73
2022-10-13T17:07:22.757Z,13.02
2022-10-13T17:09:50.051Z,13.98
2022-10-13T17:12:16.880Z,17.00
2022-10-13T17:14:44.473Z,15.07
2022-10-13T17:17:11.216Z,13.02
2022-10-13T17:19:38.030Z,14.55
2022-10-13T17:22:04.789Z,13.43
2022-10-13T17:24:32.381Z,13.15
2022-10-13T17:26:59.140Z,11.73
2022-10-13T17:29:25.860Z,14.43
2022-10-13T17:31:53.434Z,15.95
2022-10-13T17:34:21.946Z,12.27
2022-10-13T17:36:51.277Z,18.90
2022-10-13T17:39:18.197Z,12.13
2022-10-13T17:41:44.950Z,16.15
2022-10-13T17:44:11.967Z,15.57
2022-10-13T17:46:39.774Z,14.35
2022-10-13T17:49:09.570Z,14.15
2022-10-13T17:51:36.379Z,11.05
2022-10-13T17:54:03.917Z,12.57
2022-10-13T17:56:30.690Z,13.65
2022-10-13T17:58:57.484Z,13.25
2022-10-13T18:01:26.871Z,12.77
2022-10-13T18:04:01.314Z,11.70
2022-10-13T18:06:36.706Z,11.77
2022-10-13T18:09:07.416Z,10.73
2022-10-13T18:11:35.243Z,12.38
2022-10-13T18:14:02.059Z,10.27
2022-10-13T18:16:28.837Z,10.68
2022-10-13T18:18:55.895Z,10.70
2022-10-13T18:21:26.205Z,10.23
2022-10-13T18:23:57.973Z,13.15
2022-10-13T18:26:25.983Z,11.98
2022-10-13T18:28:53.212Z,8.68
2022-10-13T18:31:23.465Z,10.25
2022-10-13T18:33:59.338Z,11.30
2022-10-13T18:36:31.159Z,17.73
2022-10-13T18:39:04.428Z,13.93
2022-10-13T18:41:32.314Z,10.35
2022-10-13T18:43:59.108Z,7.57
2022-10-13T18:46:26.273Z,12.02
2022-10-13T18:48:53.077Z,11.45
2022-10-13T18:51:20.053Z,13.02
2022-10-13T18:53:48.859Z,11.15
2022-10-13T18:56:25.993Z,11.07
2022-10-13T18:58:59.316Z,15.45
2022-10-13T19:01:28.543Z,14.23
2022-10-13T19:03:55.676Z,10.98
2022-10-13T19:06:27.158Z,10.25
2022-10-13T19:09:03.486Z,13.68
2022-10-13T19:11:31.771Z,13.30
2022-10-13T19:13:59.700Z,13.20
2022-10-13T19:16:28.308Z,11.65
2022-10-13T19:18:55.457Z,12.77
2022-10-13T19:21:23.002Z,16.27
2022-10-13T19:23:50.306Z,11.65
2022-10-13T19:26:26.704Z,10.45
2022-10-13T19:28:56.762Z,13.38
2022-10-13T19:31:26.794Z,12.05
2022-10-13T19:33:54.785Z,15.25
2022-10-13T19:36:27.915Z,16.27
2022-10-13T19:38:55.554Z,16.20
2022-10-13T19:41:23.196Z,16.20
2022-10-13T19:43:50.644Z,18.75
2022-10-13T19:46:17.721Z,17.40
2022-10-13T19:48:44.893Z,21.35
2022-10-13T19:51:13.058Z,26.35
2022-10-13T19:53:40.639Z,20.70
2022-10-13T19:56:07.650Z,20.98
2022-10-13T19:58:35.478Z,18.67
2022-10-13T20:01:05.328Z,18.08
2022-10-13T20:03:32.201Z,19.67
2022-10-13T20:05:59.070Z,24.15
2022-10-13T20:08:25.986Z,22.45
2022-10-13T20:10:52.796Z,23.52
2022-10-13T20:13:19.625Z,20.00
2022-10-13T20:15:47.835Z,22.92
2022-10-13T20:18:14.656Z,19.17
2022-10-13T20:20:42.001Z,16.35
2022-10-13T20:23:09.277Z,17.83
2022-10-13T20:25:38.849Z,19.98
2022-10-13T20:28:06.290Z,20.25
2022-10-13T20:30:33.468Z,17.98
2022-10-13T20:33:00.809Z,22.42
2022-10-13T20:35:27.636Z,23.85
2022-10-13T20:37:54.811Z,20.83
2022-10-13T20:40:21.854Z,19.63
2022-10-13T20:42:52.762Z,20.95
2022-10-13T20:45:20.199Z,20.50
2022-10-13T20:47:48.624Z,18.98
2022-10-13T20:50:15.673Z,24.38
2022-10-13T20:52:42.534Z,19.83
2022-10-13T20:55:09.863Z,24.95
2022-10-13T20:57:36.943Z,22.10
2022-10-13T21:00:05.699Z,24.50
2022-10-13T21:02:32.551Z,25.42
2022-10-13T21:04:59.296Z,23.45
2022-10-13T21:07:28.330Z,26.88
2022-10-13T21:09:55.201Z,22.00
2022-10-13T21:12:21.976Z,20.13
2022-10-13T21:14:48.771Z,18.65
2022-10-13T21:17:15.552Z,21.85
2022-10-13T21:19:42.286Z,16.38
2022-10-13T21:22:09.085Z,25.25
2022-10-13T21:24:35.896Z,22.65
2022-10-13T21:27:02.930Z,18.33
2022-10-13T21:29:29.918Z,22.25
2022-10-13T21:31:56.669Z,21.08
2022-10-13T21:34:23.413Z,17.83
2022-10-13T21:36:50.165Z,22.20
2022-10-13T21:39:16.947Z,16.80
2022-10-13T21:41:43.806Z,20.40
2022-10-13T21:44:14.023Z,17.00
2022-10-13T21:46:41.015Z,26.15
2022-10-13T21:49:07.814Z,19.88
2022-10-13T21:51:40.081Z,22.00
2022-10-13T21:54:13.323Z,19.13
2022-10-13T21:56:40.851Z,18.23
2022-10-13T21:59:08.825Z,21.48
2022-10-13T22:01:35.776Z,20.70
2022-10-13T22:04:09.753Z,17.15
2022-10-13T22:06:36.483Z,22.58
2022-10-13T22:09:05.740Z,21.42
2022-10-13T22:11:34.616Z,15.80
2022-10-13T22:14:07.840Z,19.77
2022-10-13T22:16:38.599Z,19.90
2022-10-13T22:19:06.199Z,21.08
2022-10-13T22:21:39.124Z,21.80
2022-10-13T22:24:07.972Z,24.60
2022-10-13T22:26:36.506Z,22.80
2022-10-13T22:29:05.126Z,23.30
2022-10-13T22:31:33.269Z,18.13
2022-10-13T22:34:05.951Z,24.83
2022-10-13T22:36:32.791Z,23.35
2022-10-13T22:39:02.803Z,22.38
2022-10-13T22:41:30.666Z,23.55
2022-10-13T22:43:58.974Z,25.25
2022-10-13T22:46:32.024Z,28.42
2022-10-13T22:48:59.202Z,23.23
2022-10-13T22:51:27.708Z,22.58
2022-10-13T22:53:55.626Z,25.23
2022-10-13T22:56:25.898Z,23.98
2022-10-13T22:59:00.745Z,27.88
2022-10-13T23:01:28.211Z,25.70
2022-10-13T23:03:56.635Z,26.88
2022-10-13T23:06:27.235Z,25.80
2022-10-13T23:08:54.128Z,27.23
2022-10-13T23:11:20.915Z,28.02
2022-10-13T23:13:48.111Z,31.23
2022-10-13T23:16:23.227Z,29.55
2022-10-13T23:18:50.234Z,28.67
2022-10-13T23:21:26.175Z,27.80
2022-10-13T23:23:58.497Z,28.25
2022-10-13T23:26:26.146Z,32.72
2022-10-13T23:28:54.784Z,25.67
2022-10-13T23:31:21.720Z,34.70
2022-10-13T23:33:48.653Z,25.38
2022-10-13T23:36:18.570Z,28.90
2022-10-13T23:38:47.640Z,27.40
2022-10-13T23:41:16.065Z,28.48
2022-10-13T23:43:43.363Z,34.03
2022-10-13T23:46:13.554Z,27.70
2022-10-13T23:48:40.736Z,27.15
2022-10-13T23:51:14.231Z,28.77
2022-10-13T23:53:41.446Z,33.97
2022-10-13T23:56:09.614Z,28.17
2022-10-13T23:58:37.541Z,31.70
